Time,TemperatureF,DewpointF,PressureIn,WindDirection,WindDirectionDegrees,WindSpeedMPH,WindSpeedGustMPH,Humidity,HourlyPrecipIn,Conditions,Clouds,dailyrainin,SoftwareType,DateUTC
2013-01-20 00:04:00,47.5,33.9,29.64,SW,227,20.0,25.0,59,0.00,CLR,FEW,0.00,WeatherDisplay:10.37,2013-01-20 05:04:00,
2013-01-20 00:09:00,47.5,33.9,29.64,SW,227,21.0,25.0,59,0.00,CLR,FEW,0.00,WeatherDisplay:10.37,2013-01-20 05:09:00,
2013-01-20 00:14:00,47.5,33.9,29.64,SW,224,22.0,25.0,59,0.00,CLR,FEW,0.00,WeatherDisplay:10.37,2013-01-20 05:14:00,
2013-01-20 00:19:00,47.3,34.1,29.64,SW,222,23.0,24.0,60,0.00,CLR,FEW,0.00,WeatherDisplay:10.37,2013-01-20 05:19:00,
2013-01-20 00:24:00,47.5,34.3,29.64,SW,219,22.0,24.0,60,0.00,CLR,FEW,0.00,WeatherDisplay:10.37,2013-01-20 05:24:00,
2013-01-20 00:29:00,47.3,34.5,29.64,SW,221,22.0,24.0,61,0.00,CLR,FEW,0.00,WeatherDisplay:10.37,2013-01-20 05:29:00,
2013-01-20 00:34:00,46.9,34.6,29.61,SW,227,20.0,21.0,62,0.00,CLR,FEW,0.00,WeatherDisplay:10.37,2013-01-20 05:34:00,
2013-01-20 00:39:00,46.8,34.8,29.64,SW,234,20.0,23.0,63,0.00,CLR,FEW,0.00,WeatherDisplay:10.37,2013-01-20 05:39:00,
2013-01-20 00:49:00,46.2,34.7,29.61,SW,225,22.0,23.0,64,0.00,CLR,FEW,0.00,WeatherDisplay:10.37,2013-01-20 05:49:00,
2013-01-20 00:54:00,46.4,34.9,29.61,SW,221,22.0,22.0,64,0.00,CLR,FEW,0.00,WeatherDisplay:10.37,2013-01-20 05:54:00,
2013-01-20 00:59:00,46.6,35.0,29.61,SW,224,21.0,25.0,64,0.00,CLR,FEW,0.00,WeatherDisplay:10.37,2013-01-20 05:59:00,
2013-01-20 01:05:00,46.4,34.9,29.61,SW,234,21.0,25.0,64,0.00,CLR,FEW,0.00,WeatherDisplay:10.37,2013-01-20 06:05:00,
2013-01-20 01:10:00,46.0,34.9,29.61,WSW,239,21.0,26.0,65,0.00,CLR,FEW,0.00,WeatherDisplay:10.37,2013-01-20 06:10:00,
2013-01-20 01:15:00,45.5,34.8,29.61,SW,235,20.0,26.0,66,0.00,CLR,FEW,0.00,WeatherDisplay:10.37,2013-01-20 06:15:00,
2013-01-20 01:20:00,45.7,35.0,29.61,SW,231,20.0,20.0,66,0.00,CLR,FEW,0.00,WeatherDisplay:10.37,2013-01-20 06:20:00,
2013-01-20 01:25:00,45.5,35.2,29.61,SW,234,18.0,21.0,67,0.00,CLR,FEW,0.00,WeatherDisplay:10.37,2013-01-20 06:25:00,
2013-01-20 01:30:00,45.7,35.7,29.61,SW,231,18.0,26.0,68,0.00,CLR,FEW,0.00,WeatherDisplay:10.37,2013-01-20 06:30:00,
2013-01-20 01:40:00,45.0,35.0,29.61,SW,236,18.0,26.0,68,0.00,CLR,FEW,0.00,WeatherDisplay:10.37,2013-01-20 06:40:00,
2013-01-20 01:50:00,44.8,35.2,29.61,SW,226,18.0,21.0,69,0.00,CLR,FEW,0.00,WeatherDisplay:10.37,2013-01-20 06:50:00,
2013-01-20 01:55:00,44.8,35.2,29.61,SW,227,17.0,20.0,69,0.00,CLR,FEW,0.00,WeatherDisplay:10.37,2013-01-20 06:55:00,
2013-01-20 02:00:00,44.8,35.6,29.61,SW,232,18.0,25.0,70,0.00,CLR,FEW,0.00,WeatherDisplay:10.37,2013-01-20 07:00:00,
2013-01-20 02:05:00,44.8,35.6,29.61,WSW,239,20.0,25.0,70,0.00,CLR,FEW,0.00,WeatherDisplay:10.37,2013-01-20 07:05:00,
2013-01-20 02:10:00,44.8,35.6,29.61,SW,230,21.0,24.0,70,0.00,CLR,FEW,0.00,WeatherDisplay:10.37,2013-01-20 07:10:00,
2013-01-20 02:20:00,44.4,35.6,29.61,WSW,239,21.0,21.0,71,0.00,CLR,FEW,0.00,WeatherDisplay:10.37,2013-01-20 07:20:00,
2013-01-20 02:30:00,44.4,36.0,29.61,WSW,246,18.0,22.0,72,0.00,CLR,FEW,0.00,WeatherDisplay:10.37,2013-01-20 07:30:00,
2013-01-20 02:40:00,44.8,35.9,29.61,WSW,247,20.0,28.0,71,0.00,CLR,FEW,0.00,WeatherDisplay:10.37,2013-01-20 07:40:00,
2013-01-20 02:50:00,44.8,36.3,29.61,WSW,256,20.0,26.0,72,0.00,CLR,FEW,0.00,WeatherDisplay:10.37,2013-01-20 07:50:00,
2013-01-20 02:55:00,45.0,36.5,29.61,WSW,250,18.0,18.0,72,0.00,CLR,FEW,0.00,WeatherDisplay:10.37,2013-01-20 07:55:00,
2013-01-20 03:00:00,45.1,36.6,29.64,WSW,243,16.0,20.0,72,0.00,CLR,FEW,0.00,WeatherDisplay:10.37,2013-01-20 08:00:00,
2013-01-20 03:05:00,44.8,36.3,29.64,WSW,251,17.0,24.0,72,0.00,CLR,FEW,0.00,WeatherDisplay:10.37,2013-01-20 08:05:00,
2013-01-20 03:10:00,44.6,35.8,29.64,WSW,246,20.0,24.0,71,0.00,CLR,FEW,0.00,WeatherDisplay:10.37,2013-01-20 08:10:00,
2013-01-20 03:20:00,44.1,34.9,29.64,West,259,26.0,32.0,70,0.00,CLR,FEW,0.00,WeatherDisplay:10.37,2013-01-20 08:20:00,
2013-01-20 03:25:00,44.1,34.5,29.64,WSW,258,28.0,31.0,69,0.00,CLR,FEW,0.00,WeatherDisplay:10.37,2013-01-20 08:25:00,
2013-01-20 03:30:00,43.3,33.8,29.64,WSW,245,24.0,27.0,69,0.00,CLR,FEW,0.00,WeatherDisplay:10.37,2013-01-20 08:30:00,
2013-01-20 03:40:00,43.2,30.6,29.64,West,265,21.0,25.0,61,0.00,CLR,FEW,0.00,WeatherDisplay:10.37,2013-01-20 08:40:00,
2013-01-20 03:45:00,42.8,30.7,29.64,West,266,20.0,23.0,62,0.00,CLR,FEW,0.00,WeatherDisplay:10.37,2013-01-20 08:45:00,
2013-01-20 03:50:00,42.6,31.3,29.64,West,266,22.0,25.0,64,0.00,CLR,FEW,0.00,WeatherDisplay:10.37,2013-01-20 08:50:00,
2013-01-20 04:00:00,42.3,30.2,29.67,WSW,253,23.0,28.0,62,0.00,CLR,FEW,0.00,WeatherDisplay:10.37,2013-01-20 09:00:00,
2013-01-20 04:05:00,41.5,28.7,29.67,WSW,253,25.0,32.0,60,0.00,CLR,FEW,0.00,WeatherDisplay:10.37,2013-01-20 09:05:00,
2013-01-20 04:10:00,41.5,28.7,29.67,WSW,257,26.0,32.0,60,0.00,CLR,FEW,0.00,WeatherDisplay:10.37,2013-01-20 09:10:00,
2013-01-20 04:15:00,41.0,27.8,29.67,WSW,253,29.0,32.0,59,0.00,,FEW,0.00,WeatherDisplay:10.37,2013-01-20 09:15:00,
2013-01-20 04:20:00,40.6,27.4,29.67,WSW,253,30.0,32.0,59,0.00,,FEW,0.00,WeatherDisplay:10.37,2013-01-20 09:20:00,
2013-01-20 04:25:00,40.5,27.2,29.67,WSW,257,29.0,29.0,59,0.00,CLR,FEW,0.00,WeatherDisplay:10.37,2013-01-20 09:25:00,
2013-01-20 04:30:00,40.1,26.5,29.67,West,259,28.0,29.0,58,0.00,CLR,FEW,0.00,WeatherDisplay:10.37,2013-01-20 09:30:00,
2013-01-20 04:40:00,40.1,26.5,29.67,WSW,258,25.0,25.0,58,0.00,CLR,FEW,0.00,WeatherDisplay:10.37,2013-01-20 09:40:00,
2013-01-20 04:45:00,40.1,26.5,29.70,West,259,24.0,27.0,58,0.00,CLR,FEW,0.00,WeatherDisplay:10.37,2013-01-20 09:45:00,
2013-01-20 04:50:00,39.6,26.0,29.70,West,270,23.0,27.0,58,0.00,CLR,FEW,0.00,WeatherDisplay:10.37,2013-01-20 09:50:00,
2013-01-20 05:00:00,39.2,26.1,29.70,WSW,248,21.0,26.0,59,0.00,CLR,FEW,0.00,WeatherDisplay:10.37,2013-01-20 10:00:00,
2013-01-20 05:05:00,38.8,25.7,29.70,West,264,18.0,22.0,59,0.00,CLR,FEW,0.00,WeatherDisplay:10.37,2013-01-20 10:05:00,
2013-01-20 05:10:00,38.7,26.0,29.70,West,266,18.0,22.0,60,0.00,CLR,FEW,0.00,WeatherDisplay:10.37,2013-01-20 10:10:00,
2013-01-20 05:20:00,38.3,25.6,29.70,WSW,247,18.0,22.0,60,0.00,CLR,FEW,0.00,WeatherDisplay:10.37,2013-01-20 10:20:00,
2013-01-20 05:25:00,38.3,25.6,29.73,WSW,248,20.0,20.0,60,0.00,CLR,FEW,0.00,WeatherDisplay:10.37,2013-01-20 10:25:00,
2013-01-20 05:30:00,38.1,25.4,29.73,WSW,252,20.0,22.0,60,0.00,CLR,FEW,0.00,WeatherDisplay:10.37,2013-01-20 10:30:00,
2013-01-20 05:35:00,38.1,25.8,29.73,WSW,258,18.0,18.0,61,0.00,CLR,FEW,0.00,WeatherDisplay:10.37,2013-01-20 10:35:00,
2013-01-20 05:40:00,37.8,25.9,29.73,West,264,17.0,17.0,62,0.00,CLR,FEW,0.00,WeatherDisplay:10.37,2013-01-20 10:40:00,
2013-01-20 05:50:00,34.7,21.8,29.76,NW,304,18.0,28.0,59,0.00,CLR,FEW,0.00,WeatherDisplay:10.37,2013-01-20 10:50:00,
2013-01-20 05:55:00,34.7,21.8,29.76,WNW,291,18.0,20.0,59,0.00,CLR,FEW,0.00,WeatherDisplay:10.37,2013-01-20 10:55:00,
2013-01-20 06:00:00,33.4,20.6,29.76,West,281,21.0,24.0,59,0.00,CLR,FEW,0.00,WeatherDisplay:10.37,2013-01-20 11:00:00,
2013-01-20 06:05:00,33.3,20.1,29.76,WNW,287,21.0,21.0,58,0.00,CLR,FEW,0.00,WeatherDisplay:10.37,2013-01-20 11:05:00,
2013-01-20 06:10:00,33.1,19.1,29.79,WNW,287,21.0,21.0,56,0.00,CLR,FEW,0.00,WeatherDisplay:10.37,2013-01-20 11:10:00,
2013-01-20 06:15:00,32.9,19.3,29.79,WNW,284,21.0,21.0,57,0.00,CLR,FEW,0.00,WeatherDisplay:10.37,2013-01-20 11:15:00,
2013-01-20 06:20:00,32.5,19.8,29.79,West,279,17.0,21.0,59,0.00,CLR,FEW,0.00,WeatherDisplay:10.37,2013-01-20 11:20:00,
2013-01-20 06:30:00,31.3,19.4,29.79,WNW,282,17.0,21.0,61,0.00,CLR,FEW,0.00,WeatherDisplay:10.37,2013-01-20 11:30:00,
2013-01-20 06:40:00,30.4,19.3,29.82,WNW,299,18.0,20.0,63,0.00,CLR,FEW,0.00,WeatherDisplay:10.37,2013-01-20 11:40:00,
2013-01-20 06:45:00,29.8,18.8,29.82,WNW,298,18.0,24.0,63,0.00,CLR,FEW,0.00,WeatherDisplay:10.37,2013-01-20 11:45:00,
2013-01-20 06:50:00,29.7,18.6,29.82,West,277,18.0,18.0,63,0.00,CLR,FEW,0.00,WeatherDisplay:10.37,2013-01-20 11:50:00,
2013-01-20 07:00:00,29.5,17.7,29.82,WNW,284,16.0,17.0,61,0.00,CLR,FEW,0.00,WeatherDisplay:10.37,2013-01-20 12:00:00,
2013-01-20 07:05:00,29.1,17.3,29.85,WNW,288,15.0,18.0,61,0.00,CLR,FEW,0.00,WeatherDisplay:10.37,2013-01-20 12:05:00,
2013-01-20 07:10:00,28.9,17.2,29.85,West,276,15.0,18.0,61,0.00,CLR,FEW,0.00,WeatherDisplay:10.37,2013-01-20 12:10:00,
2013-01-20 07:20:00,28.8,17.4,29.85,West,277,17.0,21.0,62,0.00,CLR,FEW,0.00,WeatherDisplay:10.37,2013-01-20 12:20:00,
2013-01-20 07:30:00,28.6,16.4,29.85,West,276,17.0,28.0,60,0.00,CLR,FEW,0.00,WeatherDisplay:10.37,2013-01-20 12:30:00,
2013-01-20 07:35:00,28.0,15.9,29.88,West,272,21.0,28.0,60,0.00,CLR,FEW,0.00,WeatherDisplay:10.37,2013-01-20 12:35:00,
2013-01-20 07:40:00,28.6,16.4,29.88,West,278,22.0,29.0,60,0.00,CLR,FEW,0.00,WeatherDisplay:10.37,2013-01-20 12:40:00,
2013-01-20 07:50:00,27.9,15.4,29.88,West,266,20.0,26.0,59,0.00,CLR,FEW,0.00,WeatherDisplay:10.37,2013-01-20 12:50:00,
2013-01-20 07:55:00,27.9,15.4,29.88,West,272,20.0,26.0,59,0.00,CLR,FEW,0.00,WeatherDisplay:10.37,2013-01-20 12:55:00,
2013-01-20 08:00:00,27.7,15.2,29.88,West,279,18.0,21.0,59,0.00,CLR,FEW,0.00,WeatherDisplay:10.37,2013-01-20 13:00:00,
2013-01-20 08:05:00,28.4,16.7,29.88,West,281,18.0,18.0,61,0.00,CLR,FEW,0.00,WeatherDisplay:10.37,2013-01-20 13:05:00,
2013-01-20 08:15:00,28.0,15.9,29.91,West,273,17.0,19.0,60,0.00,CLR,FEW,0.00,WeatherDisplay:10.37,2013-01-20 13:15:00,
2013-01-20 08:20:00,27.7,15.2,29.91,West,261,17.0,19.0,59,0.00,CLR,FEW,0.00,WeatherDisplay:10.37,2013-01-20 13:20:00,
2013-01-20 08:30:00,27.7,15.2,29.91,West,265,17.0,22.0,59,0.00,CLR,FEW,0.00,WeatherDisplay:10.37,2013-01-20 13:30:00,
2013-01-20 08:40:00,27.5,15.0,29.91,West,272,20.0,33.0,59,0.00,CLR,FEW,0.00,WeatherDisplay:10.37,2013-01-20 13:40:00,
2013-01-20 08:50:00,27.5,15.8,29.94,WSW,256,21.0,21.0,61,0.00,CLR,FEW,0.00,WeatherDisplay:10.37,2013-01-20 13:50:00,
2013-01-20 09:00:00,27.5,15.8,29.94,West,272,16.0,16.0,61,0.00,CLR,FEW,0.00,WeatherDisplay:10.37,2013-01-20 14:00:00,
2013-01-20 09:05:00,26.6,13.8,29.94,West,275,15.0,22.0,58,0.00,CLR,FEW,0.00,WeatherDisplay:10.37,2013-01-20 14:05:00,
2013-01-20 09:10:00,27.0,13.7,29.94,West,273,15.0,23.0,57,0.00,CLR,FEW,0.00,WeatherDisplay:10.37,2013-01-20 14:10:00,
2013-01-20 09:20:00,27.3,11.1,29.94,WNW,291,16.0,18.0,50,0.00,CLR,FEW,0.00,WeatherDisplay:10.37,2013-01-20 14:20:00,
2013-01-20 09:30:00,26.4,13.6,29.97,WNW,287,15.0,18.0,58,0.00,CLR,FEW,0.00,WeatherDisplay:10.37,2013-01-20 14:30:00,
2013-01-20 09:40:00,26.2,16.1,29.97,West,279,16.0,18.0,65,0.00,CLR,FEW,0.00,WeatherDisplay:10.37,2013-01-20 14:40:00,
2013-01-20 09:45:00,25.7,14.5,29.97,West,279,16.0,20.0,62,0.00,CLR,FEW,0.00,WeatherDisplay:10.37,2013-01-20 14:45:00,
2013-01-20 09:50:00,25.5,13.9,29.97,WNW,284,16.0,18.0,61,0.00,CLR,FEW,0.00,WeatherDisplay:10.37,2013-01-20 14:50:00,
2013-01-20 10:00:00,25.7,13.7,30.00,West,279,16.0,17.0,60,0.00,CLR,FEW,0.00,WeatherDisplay:10.37,2013-01-20 15:00:00,
2013-01-20 10:05:00,25.3,13.4,30.00,WNW,289,17.0,21.0,60,0.00,CLR,FEW,0.00,WeatherDisplay:10.37,2013-01-20 15:05:00,
2013-01-20 10:10:00,25.3,13.4,30.00,WNW,298,17.0,18.0,60,0.00,CLR,FEW,0.00,WeatherDisplay:10.37,2013-01-20 15:10:00,
2013-01-20 10:20:00,24.8,12.5,30.00,WNW,285,20.0,26.0,59,0.00,CLR,FEW,0.00,WeatherDisplay:10.37,2013-01-20 15:20:00,
2013-01-20 10:25:00,24.8,12.5,30.00,WNW,288,18.0,18.0,59,0.00,CLR,FEW,0.00,WeatherDisplay:10.37,2013-01-20 15:25:00,
2013-01-20 10:30:00,24.8,13.6,30.00,West,279,18.0,18.0,62,0.00,CLR,FEW,0.00,WeatherDisplay:10.37,2013-01-20 15:30:00,
2013-01-20 10:35:00,24.3,14.2,30.03,WNW,282,16.0,16.0,65,0.00,CLR,FEW,0.00,WeatherDisplay:10.37,2013-01-20 15:35:00,
2013-01-20 10:40:00,24.4,14.4,30.03,WNW,298,15.0,15.0,65,0.00,CLR,FEW,0.00,WeatherDisplay:10.37,2013-01-20 15:40:00,
2013-01-20 10:45:00,24.3,14.9,30.03,WNW,297,14.0,16.0,67,0.00,CLR,FEW,0.00,WeatherDisplay:10.37,2013-01-20 15:45:00,
2013-01-20 10:50:00,24.1,15.4,30.03,WNW,282,13.0,16.0,69,0.00,CLR,FEW,0.00,WeatherDisplay:10.37,2013-01-20 15:50:00,
2013-01-20 10:55:00,24.3,15.5,30.03,WNW,285,13.0,15.0,69,0.00,CLR,FEW,0.00,WeatherDisplay:10.37,2013-01-20 15:55:00,
2013-01-20 11:00:00,23.9,15.9,30.03,WNW,296,13.0,14.0,71,0.00,CLR,FEW,0.00,WeatherDisplay:10.37,2013-01-20 16:00:00,
2013-01-20 11:05:00,23.0,15.9,30.03,WNW,292,14.0,15.0,74,0.00,CLR,FEW,0.00,WeatherDisplay:10.37,2013-01-20 16:05:00,
2013-01-20 11:10:00,23.7,17.0,30.03,West,280,13.0,15.0,75,0.00,CLR,FEW,0.00,WeatherDisplay:10.37,2013-01-20 16:10:00,
2013-01-20 11:20:00,23.5,18.0,30.03,WNW,295,13.0,13.0,79,0.00,CLR,FEW,0.00,WeatherDisplay:10.37,2013-01-20 16:20:00,
2013-01-20 11:30:00,23.0,17.7,30.03,WNW,288,10.0,10.0,80,0.00,CLR,FEW,0.00,WeatherDisplay:10.37,2013-01-20 16:30:00,
2013-01-20 11:40:00,22.6,17.7,30.03,NW,315,9.0,10.0,81,0.00,CLR,FEW,0.00,WeatherDisplay:10.37,2013-01-20 16:40:00,
2013-01-20 11:50:00,22.3,18.2,30.03,WNW,287,10.0,15.0,84,0.00,CLR,FEW,0.00,WeatherDisplay:10.37,2013-01-20 16:50:00,
2013-01-20 12:00:00,23.5,18.9,30.03,WNW,284,12.0,13.0,82,0.00,CLR,FEW,0.00,WeatherDisplay:10.37,2013-01-20 17:00:00,
2013-01-20 12:05:00,23.4,17.8,30.03,NW,310,12.0,12.0,79,0.00,CLR,FEW,0.00,WeatherDisplay:10.37,2013-01-20 17:05:00,
2013-01-20 12:10:00,23.5,17.1,30.03,NW,319,10.0,13.0,76,0.00,CLR,FEW,0.00,WeatherDisplay:10.37,2013-01-20 17:10:00,
2013-01-20 12:20:00,24.1,15.4,30.03,NW,315,10.0,17.0,69,0.00,CLR,FEW,0.00,WeatherDisplay:10.37,2013-01-20 17:20:00,
2013-01-20 12:25:00,24.1,15.4,30.03,NW,307,12.0,17.0,69,0.00,CLR,FEW,0.00,WeatherDisplay:10.37,2013-01-20 17:25:00,
2013-01-20 12:30:00,23.7,15.0,30.03,WNW,292,13.0,14.0,69,0.00,CLR,FEW,0.00,WeatherDisplay:10.37,2013-01-20 17:30:00,
2013-01-20 12:40:00,24.1,14.4,30.06,WNW,286,13.0,15.0,66,0.00,CLR,FEW,0.00,WeatherDisplay:10.37,2013-01-20 17:40:00,
2013-01-20 12:45:00,24.1,14.4,30.06,WNW,288,14.0,15.0,66,0.00,CLR,FEW,0.00,WeatherDisplay:10.37,2013-01-20 17:45:00,
2013-01-20 12:50:00,24.4,14.0,30.06,WNW,294,14.0,14.0,64,0.00,CLR,FEW,0.00,WeatherDisplay:10.37,2013-01-20 17:50:00,
2013-01-20 13:00:00,25.2,14.7,30.06,WNW,290,14.0,16.0,64,0.00,CLR,FEW,0.00,WeatherDisplay:10.37,2013-01-20 18:00:00,
2013-01-20 13:05:00,25.2,14.0,30.06,WNW,289,14.0,14.0,62,0.00,CLR,FEW,0.00,WeatherDisplay:10.37,2013-01-20 18:05:00,
2013-01-20 13:10:00,25.3,13.8,30.06,West,273,14.0,14.0,61,0.00,CLR,FEW,0.00,WeatherDisplay:10.37,2013-01-20 18:10:00,
2013-01-20 13:20:00,26.4,15.2,30.03,WNW,285,13.0,16.0,62,0.00,CLR,FEW,0.00,WeatherDisplay:10.37,2013-01-20 18:20:00,
2013-01-20 13:30:00,26.4,15.2,30.03,WNW,298,12.0,16.0,62,0.00,CLR,FEW,0.00,WeatherDisplay:10.37,2013-01-20 18:30:00,
2013-01-20 13:35:00,26.4,15.2,30.03,WNW,302,13.0,13.0,62,0.00,CLR,FEW,0.00,WeatherDisplay:10.37,2013-01-20 18:35:00,
2013-01-20 13:40:00,26.4,15.2,30.03,NW,310,12.0,13.0,62,0.00,CLR,FEW,0.00,WeatherDisplay:10.37,2013-01-20 18:40:00,
2013-01-20 13:45:00,26.4,15.2,30.03,NW,313,10.0,15.0,62,0.00,CLR,FEW,0.00,WeatherDisplay:10.37,2013-01-20 18:45:00,
2013-01-20 13:50:00,26.4,12.0,30.03,WNW,287,12.0,15.0,54,0.00,CLR,FEW,0.00,WeatherDisplay:10.37,2013-01-20 18:50:00,
2013-01-20 14:00:00,25.9,10.6,30.03,West,268,14.0,20.0,52,0.00,CLR,FEW,0.00,WeatherDisplay:10.37,2013-01-20 19:00:00,
2013-01-20 14:05:00,25.9,11.5,30.03,West,272,13.0,13.0,54,0.00,CLR,FEW,0.00,WeatherDisplay:10.37,2013-01-20 19:05:00,
2013-01-20 14:10:00,25.2,10.0,30.03,West,273,12.0,12.0,52,0.00,CLR,FEW,0.00,WeatherDisplay:10.37,2013-01-20 19:10:00,
2013-01-20 14:20:00,25.7,10.5,30.03,WSW,248,9.0,15.0,52,0.00,CLR,FEW,0.00,WeatherDisplay:10.37,2013-01-20 19:20:00,
2013-01-20 14:30:00,26.8,12.8,30.03,West,278,10.0,12.0,55,0.00,CLR,FEW,0.00,WeatherDisplay:10.37,2013-01-20 19:30:00,
2013-01-20 14:40:00,25.9,9.3,30.03,WSW,238,14.0,20.0,49,0.00,CLR,FEW,0.00,WeatherDisplay:10.37,2013-01-20 19:40:00,
2013-01-20 14:50:00,27.5,13.0,30.03,West,274,12.0,12.0,54,0.00,CLR,FEW,0.00,WeatherDisplay:10.37,2013-01-20 19:50:00,
2013-01-20 15:00:00,33.3,16.1,30.03,WNW,291,9.0,11.0,49,0.00,CLR,FEW,0.00,WeatherDisplay:10.37,2013-01-20 20:00:00,
2013-01-20 15:05:00,27.3,10.6,30.03,West,265,12.0,18.0,49,0.00,CLR,FEW,0.00,WeatherDisplay:10.37,2013-01-20 20:05:00,
2013-01-20 15:15:00,26.6,10.0,30.03,West,263,13.0,14.0,49,0.00,CLR,FEW,0.00,WeatherDisplay:10.37,2013-01-20 20:15:00,
2013-01-20 15:20:00,26.1,9.9,30.03,WSW,242,13.0,14.0,50,0.00,CLR,FEW,0.00,WeatherDisplay:10.37,2013-01-20 20:20:00,
2013-01-20 15:30:00,26.1,10.8,30.03,WSW,244,13.0,17.0,52,0.00,CLR,FEW,0.00,WeatherDisplay:10.37,2013-01-20 20:30:00,
2013-01-20 15:35:00,25.7,11.7,30.03,SW,231,9.0,9.0,55,0.00,CLR,FEW,0.00,WeatherDisplay:10.37,2013-01-20 20:35:00,
2013-01-20 15:40:00,25.7,12.2,30.03,WSW,254,9.0,10.0,56,0.00,CLR,FEW,0.00,WeatherDisplay:10.37,2013-01-20 20:40:00,
2013-01-20 15:50:00,25.2,11.2,30.06,West,280,6.0,9.0,55,0.00,CLR,FEW,0.00,WeatherDisplay:10.37,2013-01-20 20:50:00,
2013-01-20 16:00:00,25.0,11.5,30.06,West,266,10.0,17.0,56,0.00,CLR,FEW,0.00,WeatherDisplay:10.37,2013-01-20 21:00:00,
2013-01-20 16:05:00,25.3,12.2,30.06,WSW,256,12.0,16.0,57,0.00,CLR,FEW,0.00,WeatherDisplay:10.37,2013-01-20 21:05:00,
2013-01-20 16:10:00,25.2,11.6,30.06,WSW,258,13.0,15.0,56,0.00,CLR,FEW,0.00,WeatherDisplay:10.37,2013-01-20 21:10:00,
2013-01-20 16:20:00,25.3,11.8,30.06,SW,233,12.0,12.0,56,0.00,CLR,FEW,0.00,WeatherDisplay:10.37,2013-01-20 21:20:00,
2013-01-20 16:30:00,25.7,13.3,30.06,West,266,12.0,17.0,59,0.00,CLR,FEW,0.00,WeatherDisplay:10.37,2013-01-20 21:30:00,
2013-01-20 16:35:00,25.2,11.6,30.06,West,262,12.0,17.0,56,0.00,CLR,FEW,0.00,WeatherDisplay:10.37,2013-01-20 21:35:00,
2013-01-20 16:40:00,25.2,11.2,30.06,West,262,12.0,14.0,55,0.00,CLR,FEW,0.00,WeatherDisplay:10.37,2013-01-20 21:40:00,
2013-01-20 16:50:00,25.2,12.4,30.06,WSW,257,12.0,16.0,58,0.00,CLR,FEW,0.00,WeatherDisplay:10.37,2013-01-20 21:50:00,
2013-01-20 16:55:00,24.8,12.5,30.06,WSW,252,12.0,13.0,59,0.00,CLR,FEW,0.00,WeatherDisplay:10.37,2013-01-20 21:55:00,
2013-01-20 17:05:00,24.8,12.5,30.06,WSW,255,9.0,9.0,59,0.00,CLR,FEW,0.00,WeatherDisplay:10.37,2013-01-20 22:05:00,
2013-01-20 17:10:00,24.8,12.5,30.06,West,263,7.0,7.0,59,0.00,CLR,FEW,0.00,WeatherDisplay:10.37,2013-01-20 22:10:00,
2013-01-20 17:15:00,24.6,13.1,30.06,West,272,7.0,14.0,61,0.00,CLR,FEW,0.00,WeatherDisplay:10.37,2013-01-20 22:15:00,
2013-01-20 17:20:00,24.8,12.5,30.06,West,276,6.0,10.0,59,0.00,CLR,FEW,0.00,WeatherDisplay:10.37,2013-01-20 22:20:00,
2013-01-20 17:30:00,24.6,12.7,30.06,WSW,248,9.0,14.0,60,0.00,CLR,FEW,0.00,WeatherDisplay:10.37,2013-01-20 22:30:00,
2013-01-20 17:40:00,24.6,12.7,30.06,WSW,254,12.0,13.0,60,0.00,CLR,FEW,0.00,WeatherDisplay:10.37,2013-01-20 22:40:00,
2013-01-20 17:45:00,24.6,12.7,30.06,WSW,250,12.0,12.0,60,0.00,CLR,FEW,0.00,WeatherDisplay:10.37,2013-01-20 22:45:00,
2013-01-20 17:55:00,24.6,12.7,30.06,WSW,258,10.0,14.0,60,0.00,CLR,FEW,0.00,WeatherDisplay:10.37,2013-01-20 22:55:00,
2013-01-20 18:00:00,24.6,12.7,30.06,West,266,10.0,13.0,60,0.00,CLR,FEW,0.00,WeatherDisplay:10.37,2013-01-20 23:00:00,
2013-01-20 18:05:00,24.6,12.7,30.06,West,259,9.0,9.0,60,0.00,CLR,FEW,0.00,WeatherDisplay:10.37,2013-01-20 23:05:00,
2013-01-20 18:10:00,24.3,13.1,30.06,WSW,253,9.0,9.0,62,0.00,CLR,FEW,0.00,WeatherDisplay:10.37,2013-01-20 23:10:00,
2013-01-20 18:15:00,24.3,12.7,30.06,WSW,257,7.0,8.0,61,0.00,CLR,FEW,0.00,WeatherDisplay:10.37,2013-01-20 23:15:00,
2013-01-20 18:20:00,24.4,13.3,30.06,West,259,6.0,7.0,62,0.00,CLR,FEW,0.00,WeatherDisplay:10.37,2013-01-20 23:20:00,
2013-01-20 18:30:00,24.4,12.5,30.06,West,264,7.0,11.0,60,0.00,CLR,FEW,0.00,WeatherDisplay:10.37,2013-01-20 23:30:00,
2013-01-20 18:40:00,24.1,12.6,30.06,West,272,8.0,13.0,61,0.00,CLR,FEW,0.00,WeatherDisplay:10.37,2013-01-20 23:40:00,
2013-01-20 18:45:00,23.9,12.4,30.06,West,279,9.0,12.0,61,0.00,CLR,FEW,0.00,WeatherDisplay:10.37,2013-01-20 23:45:00,
2013-01-20 18:50:00,24.1,12.9,30.06,West,270,10.0,12.0,62,0.00,CLR,FEW,0.00,WeatherDisplay:10.37,2013-01-20 23:50:00,
2013-01-20 18:55:00,23.9,12.8,30.06,West,267,10.0,11.0,62,0.00,CLR,FEW,0.00,WeatherDisplay:10.37,2013-01-20 23:55:00,
2013-01-20 19:00:00,24.1,12.9,30.06,WSW,238,10.0,11.0,62,0.00,CLR,FEW,0.00,WeatherDisplay:10.37,2013-01-21 00:00:00,
2013-01-20 19:05:00,23.7,13.0,30.06,WSW,256,9.0,9.0,63,0.00,CLR,FEW,0.00,WeatherDisplay:10.37,2013-01-21 00:05:00,
2013-01-20 19:10:00,23.9,13.1,30.06,West,265,8.0,8.0,63,0.00,CLR,FEW,0.00,WeatherDisplay:10.37,2013-01-21 00:10:00,
2013-01-20 19:15:00,23.5,12.8,30.06,West,264,8.0,9.0,63,0.00,CLR,FEW,0.00,WeatherDisplay:10.37,2013-01-21 00:15:00,
2013-01-20 19:20:00,23.7,13.0,30.08,West,270,7.0,9.0,63,0.00,CLR,FEW,0.00,WeatherDisplay:10.37,2013-01-21 00:20:00,
2013-01-20 19:25:00,23.7,13.0,30.08,West,262,7.0,13.0,63,0.00,CLR,FEW,0.00,WeatherDisplay:10.37,2013-01-21 00:25:00,
2013-01-20 19:30:00,23.5,12.4,30.06,WSW,254,7.0,12.0,62,0.00,CLR,FEW,0.00,WeatherDisplay:10.37,2013-01-21 00:30:00,
2013-01-20 19:40:00,23.5,12.8,30.06,West,272,6.0,9.0,63,0.00,CLR,FEW,0.00,WeatherDisplay:10.37,2013-01-21 00:40:00,
2013-01-20 19:50:00,23.4,13.0,30.06,WNW,301,5.0,7.0,64,0.00,CLR,FEW,0.00,WeatherDisplay:10.37,2013-01-21 00:50:00,
2013-01-20 19:55:00,23.5,13.1,30.06,WNW,293,5.0,7.0,64,0.00,CLR,FEW,0.00,WeatherDisplay:10.37,2013-01-21 00:55:00,
2013-01-20 20:00:00,23.2,12.8,30.06,West,264,6.0,7.0,64,0.00,CLR,FEW,0.00,WeatherDisplay:10.37,2013-01-21 01:00:00,
2013-01-20 20:05:00,23.2,12.8,30.06,West,263,6.0,9.0,64,0.00,CLR,FEW,0.00,WeatherDisplay:10.37,2013-01-21 01:05:00,
2013-01-20 20:10:00,23.0,12.6,30.06,WSW,248,7.0,9.0,64,0.00,CLR,FEW,0.00,WeatherDisplay:10.37,2013-01-21 01:10:00,
2013-01-20 20:15:00,23.4,13.0,30.06,West,266,7.0,7.0,64,0.00,CLR,FEW,0.00,WeatherDisplay:10.37,2013-01-21 01:15:00,
2013-01-20 20:20:00,23.4,13.0,30.06,West,266,7.0,8.0,64,0.00,CLR,FEW,0.00,WeatherDisplay:10.37,2013-01-21 01:20:00,
2013-01-20 20:30:00,23.2,12.8,30.06,WNW,286,7.0,10.0,64,0.00,CLR,FEW,0.00,WeatherDisplay:10.37,2013-01-21 01:30:00,
2013-01-20 20:40:00,23.0,12.6,30.06,WNW,291,8.0,8.0,64,0.00,CLR,FEW,0.00,WeatherDisplay:10.37,2013-01-21 01:40:00,
2013-01-20 20:45:00,22.8,12.5,30.06,West,269,7.0,10.0,64,0.00,CLR,FEW,0.00,WeatherDisplay:10.37,2013-01-21 01:45:00,
2013-01-20 20:50:00,22.6,12.6,30.06,West,267,6.0,9.0,65,0.00,CLR,FEW,0.00,WeatherDisplay:10.37,2013-01-21 01:50:00,
2013-01-20 21:00:00,23.0,13.3,30.06,West,281,6.0,6.0,66,0.00,CLR,FEW,0.00,WeatherDisplay:10.37,2013-01-21 02:00:00,
2013-01-20 21:05:00,23.2,13.5,30.06,West,271,3.0,3.0,66,0.00,CLR,FEW,0.00,WeatherDisplay:10.37,2013-01-21 02:05:00,
2013-01-20 21:10:00,23.2,13.8,30.06,West,266,3.0,5.0,67,0.00,CLR,FEW,0.00,WeatherDisplay:10.37,2013-01-21 02:10:00,
2013-01-20 21:15:00,23.2,13.5,30.06,WNW,296,2.0,7.0,66,0.00,CLR,FEW,0.00,WeatherDisplay:10.37,2013-01-21 02:15:00,
2013-01-20 21:20:00,23.2,13.5,30.06,WNW,300,3.0,8.0,66,0.00,CLR,FEW,0.00,WeatherDisplay:10.37,2013-01-21 02:20:00,
2013-01-20 21:30:00,23.0,13.3,30.06,West,265,6.0,9.0,66,0.00,CLR,FEW,0.00,WeatherDisplay:10.37,2013-01-21 02:30:00,
2013-01-20 21:40:00,22.5,12.8,30.06,West,275,7.0,9.0,66,0.00,CLR,FEW,0.00,WeatherDisplay:10.37,2013-01-21 02:40:00,
2013-01-20 21:50:00,22.1,12.1,30.06,West,272,7.0,12.0,65,0.00,CLR,FEW,0.00,WeatherDisplay:10.37,2013-01-21 02:50:00,
2013-01-20 22:00:00,21.7,11.4,30.06,West,277,8.0,13.0,64,0.00,CLR,FEW,0.00,WeatherDisplay:10.37,2013-01-21 03:00:00,
2013-01-20 22:10:00,21.9,11.9,30.06,West,266,8.0,13.0,65,0.00,CLR,FEW,0.00,WeatherDisplay:10.37,2013-01-21 03:10:00,
2013-01-20 22:20:00,21.7,11.8,30.06,West,276,8.0,9.0,65,0.00,CLR,FEW,0.00,WeatherDisplay:10.37,2013-01-21 03:20:00,
2013-01-20 22:30:00,21.7,11.8,30.06,WNW,289,9.0,11.0,65,0.00,CLR,FEW,0.00,WeatherDisplay:10.37,2013-01-21 03:30:00,